createdAt,value
2023-04-12T00:00:44.949Z,72.27
2023-04-12T00:03:51.045Z,71.56
2023-04-12T00:06:54.587Z,70.87
2023-04-12T00:09:58.317Z,71.50
2023-04-12T00:13:00.157Z,72.02
2023-04-12T00:16:02.102Z,71.58
2023-04-12T00:19:05.091Z,71.96
2023-04-12T00:22:06.931Z,72.00
2023-04-12T00:25:10.841Z,72.51
2023-04-12T00:28:12.799Z,72.30
2023-04-12T00:31:14.933Z,71.86
2023-04-12T00:34:17.308Z,71.62
2023-04-12T00:37:19.864Z,71.15
2023-04-12T00:40:23.231Z,71.54
2023-04-12T00:43:27.628Z,71.53
2023-04-12T00:46:30.069Z,72.06
2023-04-12T00:49:33.776Z,71.84
2023-04-12T00:52:35.870Z,70.80
2023-04-12T00:55:39.137Z,71.70
2023-04-12T00:58:41.638Z,72.81
2023-04-12T01:01:45.605Z,71.50
2023-04-12T01:04:50.724Z,73.27
2023-04-12T01:08:05.326Z,72.58
2023-04-12T01:11:15.647Z,72.83
2023-04-12T01:14:24.599Z,72.83
2023-04-12T01:17:31.406Z,72.64
2023-04-12T01:20:39.386Z,72.34
2023-04-12T01:23:54.112Z,73.20
2023-04-12T01:27:00.866Z,72.78
2023-04-12T01:30:08.361Z,73.00
2023-04-12T01:33:12.404Z,72.70
2023-04-12T01:36:18.287Z,73.12
2023-04-12T01:39:20.466Z,72.57
2023-04-12T01:42:22.292Z,73.72
2023-04-12T01:45:27.548Z,73.26
2023-04-12T01:48:29.422Z,73.27
2023-04-12T01:51:42.259Z,73.10
2023-04-12T01:54:45.362Z,73.29
2023-04-12T01:57:49.372Z,72.48
2023-04-12T02:00:54.940Z,72.21
2023-04-12T02:04:00.051Z,72.17
2023-04-12T02:07:02.794Z,72.43
2023-04-12T02:10:05.234Z,72.06
2023-04-12T02:13:07.582Z,72.42
2023-04-12T02:16:11.105Z,71.60
2023-04-12T02:19:14.109Z,71.33
2023-04-12T02:22:16.789Z,71.97
2023-04-12T02:25:18.728Z,71.41
2023-04-12T02:28:23.241Z,70.81
2023-04-12T02:31:26.456Z,71.33
2023-04-12T02:34:34.248Z,71.22
2023-04-12T02:37:37.011Z,71.04
2023-04-12T02:40:40.894Z,71.21
2023-04-12T02:43:43.527Z,71.02
2023-04-12T02:46:46.700Z,71.66
2023-04-12T02:49:49.444Z,71.77
2023-04-12T02:52:51.664Z,71.90
2023-04-12T02:55:53.481Z,72.34
2023-04-12T02:58:55.844Z,72.37
2023-04-12T03:01:59.174Z,72.58
2023-04-12T03:05:03.393Z,72.33
2023-04-12T03:08:05.886Z,72.97
2023-04-12T03:11:07.781Z,72.67
2023-04-12T03:14:10.420Z,72.09
2023-04-12T03:17:13.644Z,71.72
2023-04-12T03:20:17.320Z,72.30
2023-04-12T03:23:20.611Z,72.06
2023-04-12T03:26:26.600Z,72.37
2023-04-12T03:29:28.695Z,71.73
2023-04-12T03:32:34.837Z,71.79
2023-04-12T03:35:37.227Z,70.20
2023-04-12T03:38:39.091Z,70.94
2023-04-12T03:41:41.559Z,70.73
2023-04-12T03:44:43.435Z,69.14
2023-04-12T03:47:46.871Z,69.00
2023-04-12T03:50:49.434Z,69.31
2023-04-12T03:53:51.258Z,67.97
2023-04-12T03:56:53.337Z,67.67
2023-04-12T03:59:55.412Z,67.05
2023-04-12T04:03:03.725Z,68.01
2023-04-12T04:06:07.262Z,67.10
2023-04-12T04:09:09.125Z,67.21
2023-04-12T04:12:11.355Z,66.63
2023-04-12T04:15:15.108Z,66.55
2023-04-12T04:18:18.617Z,66.95
2023-04-12T04:21:22.419Z,66.82
2023-04-12T04:24:25.440Z,66.02
2023-04-12T04:27:30.671Z,65.58
2023-04-12T04:30:34.409Z,64.96
2023-04-12T04:33:38.007Z,63.27
2023-04-12T04:36:41.761Z,63.95
2023-04-12T04:39:43.539Z,62.59
2023-04-12T04:42:46.437Z,60.40
2023-04-12T04:45:54.699Z,59.90
2023-04-12T04:48:58.744Z,59.40
2023-04-12T04:52:01.258Z,58.07
2023-04-12T04:55:05.715Z,59.44
2023-04-12T04:58:08.791Z,57.42
2023-04-12T05:01:13.499Z,57.84
2023-04-12T05:04:16.995Z,57.01
2023-04-12T05:07:19.832Z,58.34
2023-04-12T05:10:21.790Z,57.97
2023-04-12T05:13:23.694Z,58.32
2023-04-12T05:16:25.715Z,56.86
2023-04-12T05:19:29.689Z,56.40
2023-04-12T05:22:32.669Z,58.14
2023-04-12T05:25:34.577Z,55.61
2023-04-12T05:28:36.370Z,57.23
2023-04-12T05:31:39.152Z,56.19
2023-04-12T05:34:42.355Z,56.55
2023-04-12T05:37:45.133Z,55.87
2023-04-12T05:40:50.037Z,56.81
2023-04-12T05:43:52.015Z,56.44
2023-04-12T05:46:54.013Z,57.39
2023-04-12T05:49:57.674Z,57.28
2023-04-12T05:53:01.437Z,56.91
2023-04-12T05:56:04.331Z,56.99
2023-04-12T05:59:06.732Z,58.00
2023-04-12T06:02:10.740Z,62.06
2023-04-12T06:05:15.436Z,66.81
2023-04-12T06:08:18.692Z,66.87
2023-04-12T06:11:21.211Z,67.07
2023-04-12T06:14:23.082Z,66.00
2023-04-12T06:17:24.981Z,66.36
2023-04-12T06:20:28.379Z,65.74
2023-04-12T06:23:30.162Z,66.91
2023-04-12T06:26:38.941Z,66.51
2023-04-12T06:29:41.030Z,65.81
2023-04-12T06:32:43.116Z,64.96
2023-04-12T06:35:46.345Z,61.86
2023-04-12T06:38:50.943Z,59.99
2023-04-12T06:41:52.916Z,60.13
2023-04-12T06:44:54.750Z,58.47
2023-04-12T06:47:57.196Z,58.42
2023-04-12T06:51:00.573Z,57.82
2023-04-12T06:54:03.013Z,57.37
2023-04-12T06:57:09.584Z,56.38
2023-04-12T07:00:13.137Z,56.33
2023-04-12T07:03:15.003Z,60.46
2023-04-12T07:06:25.688Z,62.38
2023-04-12T07:09:30.708Z,60.64
2023-04-12T07:12:33.073Z,61.55
2023-04-12T07:15:34.972Z,60.36
2023-04-12T07:18:36.790Z,60.91
2023-04-12T07:21:40.269Z,59.88
2023-04-12T07:24:42.099Z,60.61
2023-04-12T07:27:44.768Z,59.17
2023-04-12T07:30:46.735Z,60.71
2023-04-12T07:33:48.975Z,59.49
2023-04-12T07:36:52.197Z,59.18
2023-04-12T07:39:54.830Z,60.14
2023-04-12T07:42:56.650Z,60.22
2023-04-12T07:45:59.108Z,59.39
2023-04-12T07:49:01.113Z,58.67
2023-04-12T07:52:05.491Z,60.05
2023-04-12T07:55:07.968Z,57.93
2023-04-12T07:58:10.016Z,58.92
2023-04-12T08:01:13.598Z,58.21
2023-04-12T08:04:15.734Z,58.58
2023-04-12T08:07:19.317Z,58.04
2023-04-12T08:10:21.160Z,57.55
2023-04-12T08:13:23.716Z,58.00
2023-04-12T08:16:25.869Z,57.78
2023-04-12T08:19:28.818Z,57.28
2023-04-12T08:22:32.052Z,55.40
2023-04-12T08:25:34.195Z,56.60
2023-04-12T08:28:38.456Z,56.03
2023-04-12T08:31:42.259Z,54.70
2023-04-12T08:34:46.053Z,54.82
2023-04-12T08:37:49.994Z,52.65
2023-04-12T08:40:51.807Z,51.84
2023-04-12T08:43:55.836Z,52.90
2023-04-12T08:46:58.093Z,51.39
2023-04-12T08:50:02.758Z,52.79
2023-04-12T08:53:06.167Z,51.91
2023-04-12T08:56:11.366Z,51.56
2023-04-12T08:59:14.639Z,49.60
2023-04-12T09:02:16.742Z,49.19
2023-04-12T09:05:19.713Z,50.58
2023-04-12T09:08:23.072Z,50.73
2023-04-12T09:11:27.616Z,49.61
2023-04-12T09:14:29.505Z,50.36
2023-04-12T09:17:32.425Z,48.68
2023-04-12T09:20:35.089Z,48.98
2023-04-12T09:23:38.915Z,48.55
2023-04-12T09:26:40.819Z,49.27
2023-04-12T09:29:42.653Z,46.96
2023-04-12T09:32:46.055Z,46.94
2023-04-12T09:35:48.500Z,46.52
2023-04-12T09:39:02.137Z,47.79
2023-04-12T09:42:05.045Z,47.60
2023-04-12T09:45:20.385Z,46.31
2023-04-12T09:48:22.445Z,46.23
2023-04-12T09:51:26.721Z,47.08
2023-04-12T09:54:30.827Z,47.54
2023-04-12T09:57:34.371Z,47.98
2023-04-12T10:00:36.944Z,47.21
2023-04-12T10:03:39.780Z,45.54
2023-04-12T10:06:42.243Z,44.32
2023-04-12T10:09:46.515Z,45.30
2023-04-12T10:12:49.563Z,45.92
2023-04-12T10:15:53.075Z,45.86
2023-04-12T10:18:55.781Z,46.00
2023-04-12T10:21:58.481Z,43.30
2023-04-12T10:25:02.386Z,42.93
2023-04-12T10:28:14.483Z,42.91
2023-04-12T10:31:30.452Z,43.40
2023-04-12T10:34:32.386Z,43.03
2023-04-12T10:37:59.338Z,43.46
2023-04-12T10:41:15.618Z,43.64
2023-04-12T10:44:25.018Z,43.48
2023-04-12T10:48:02.003Z,41.33
2023-04-12T10:51:20.031Z,42.62
2023-04-12T10:54:40.746Z,41.35
2023-04-12T10:57:49.500Z,41.92
2023-04-12T11:01:10.640Z,42.47
2023-04-12T11:04:18.087Z,42.18
2023-04-12T11:07:20.964Z,41.36
2023-04-12T11:10:25.920Z,41.53
2023-04-12T11:13:30.107Z,42.95
2023-04-12T11:16:32.267Z,41.65
2023-04-12T11:19:36.634Z,39.06
2023-04-12T11:22:40.933Z,40.10
2023-04-12T11:25:44.297Z,39.96
2023-04-12T11:28:48.308Z,41.19
2023-04-12T11:31:50.399Z,37.55
2023-04-12T11:34:53.333Z,38.12
2023-04-12T11:37:57.474Z,37.54
2023-04-12T11:41:00.308Z,36.34
2023-04-12T11:44:03.804Z,36.76
2023-04-12T11:47:05.894Z,35.38
2023-04-12T11:50:09.212Z,36.90
2023-04-12T11:53:12.203Z,35.99
2023-04-12T11:56:14.732Z,35.96
2023-04-12T11:59:18.533Z,37.17
2023-04-12T12:02:23.803Z,38.56
2023-04-12T12:05:27.300Z,36.52
2023-04-12T12:08:30.513Z,36.73
2023-04-12T12:11:33.145Z,36.79
2023-04-12T12:14:36.606Z,36.67
2023-04-12T12:17:38.952Z,37.76
2023-04-12T12:20:42.566Z,36.88
2023-04-12T12:23:46.250Z,39.94
2023-04-12T12:26:49.695Z,38.25
2023-04-12T12:29:55.330Z,36.61
2023-04-12T12:32:57.186Z,35.46
2023-04-12T12:35:59.167Z,35.80
2023-04-12T12:39:07.294Z,35.20
2023-04-12T12:42:12.452Z,37.31
2023-04-12T12:45:17.322Z,36.70
2023-04-12T12:48:21.622Z,36.21
2023-04-12T12:51:23.535Z,35.87
2023-04-12T12:57:30.820Z,34.82
2023-04-12T13:00:34.061Z,34.35
2023-04-12T13:03:36.214Z,33.47
2023-04-12T13:06:39.335Z,34.24
2023-04-12T13:09:41.567Z,35.27
2023-04-12T13:12:43.376Z,34.81
2023-04-12T13:15:51.784Z,35.07
2023-04-12T13:18:53.982Z,35.36
2023-04-12T13:21:56.183Z,34.61
2023-04-12T13:24:58.962Z,34.54
2023-04-12T13:28:00.861Z,34.85
2023-04-12T13:31:04.617Z,35.15
2023-04-12T13:34:06.467Z,34.65
2023-04-12T13:37:08.982Z,34.36
2023-04-12T13:40:11.316Z,34.50
2023-04-12T13:43:13.172Z,33.93
2023-04-12T13:46:17.346Z,33.77
2023-04-12T13:49:19.333Z,33.30
2023-04-12T13:52:21.914Z,34.57
2023-04-12T13:55:23.789Z,33.41
2023-04-12T13:58:26.111Z,33.08
2023-04-12T14:01:30.291Z,33.11
2023-04-12T14:04:32.320Z,33.32
2023-04-12T14:07:34.822Z,31.46
2023-04-12T14:10:36.660Z,31.33
2023-04-12T14:13:38.854Z,31.79
2023-04-12T14:16:42.187Z,30.45
2023-04-12T14:19:44.831Z,30.83
2023-04-12T14:22:46.661Z,31.05
2023-04-12T14:25:48.496Z,30.69
2023-04-12T14:28:51.740Z,30.20
2023-04-12T14:31:54.903Z,31.24
2023-04-12T14:34:56.836Z,29.15
2023-04-12T14:37:58.606Z,30.05
2023-04-12T14:41:00.622Z,30.72
2023-04-12T14:44:02.764Z,30.92
2023-04-12T14:47:06.136Z,31.35
2023-04-12T14:50:09.333Z,30.47
2023-04-12T14:53:13.800Z,30.77
2023-04-12T14:56:23.798Z,30.05
2023-04-12T14:59:29.711Z,29.99
2023-04-12T15:02:33.283Z,29.89
2023-04-12T15:05:36.168Z,30.71
2023-04-12T15:08:41.697Z,29.66
2023-04-12T15:11:47.052Z,29.87
2023-04-12T15:14:52.417Z,29.85
2023-04-12T15:17:55.813Z,31.62
2023-04-12T15:21:00.232Z,32.57
2023-04-12T15:24:02.803Z,30.22
2023-04-12T15:27:06.607Z,31.41
2023-04-12T15:30:12.313Z,30.99
2023-04-12T15:33:15.443Z,31.10
2023-04-12T15:36:20.375Z,30.25
2023-04-12T15:39:22.863Z,29.73
2023-04-12T15:42:24.699Z,29.83
2023-04-12T15:45:28.163Z,30.90
2023-04-12T15:48:31.708Z,31.45
2023-04-12T15:51:35.461Z,31.17
2023-04-12T15:54:43.582Z,31.48
2023-04-12T15:57:47.112Z,33.98
2023-04-12T16:00:49.820Z,32.37
2023-04-12T16:03:53.953Z,30.18
2023-04-12T16:06:55.896Z,30.76
2023-04-12T16:09:58.049Z,32.59
2023-04-12T16:13:00.574Z,29.82
2023-04-12T16:16:02.399Z,30.77
2023-04-12T16:19:06.361Z,29.21
2023-04-12T16:22:09.105Z,30.92
2023-04-12T16:25:12.102Z,32.60
2023-04-12T16:28:17.725Z,30.99
2023-04-12T16:31:21.406Z,35.12
2023-04-12T16:34:25.116Z,35.28
2023-04-12T16:37:29.793Z,37.83
2023-04-12T16:40:32.507Z,37.71
2023-04-12T16:43:34.394Z,42.59
2023-04-12T16:46:36.828Z,41.22
2023-04-12T16:49:42.197Z,39.78
2023-04-12T16:52:44.177Z,44.81
2023-04-12T16:55:47.757Z,42.96
2023-04-12T16:58:50.326Z,43.34
2023-04-12T17:01:53.416Z,48.45
2023-04-12T17:04:56.984Z,46.84
2023-04-12T17:08:03.239Z,45.08
2023-04-12T17:11:05.963Z,45.54
2023-04-12T17:14:28.729Z,44.85
2023-04-12T17:17:30.789Z,43.68
2023-04-12T17:20:36.644Z,42.53
2023-04-12T17:23:39.764Z,42.61
2023-04-12T17:26:42.521Z,43.71
2023-04-12T17:29:45.388Z,46.82
2023-04-12T17:32:47.895Z,41.84
2023-04-12T17:35:55.251Z,43.24
2023-04-12T17:38:59.710Z,42.98
2023-04-12T17:42:02.029Z,44.87
2023-04-12T17:45:06.872Z,41.98
2023-04-12T17:48:11.744Z,41.01
2023-04-12T17:51:17.765Z,42.23
2023-04-12T17:54:21.815Z,43.10
2023-04-12T17:57:24.142Z,43.82
2023-04-12T18:00:27.781Z,44.07
2023-04-12T18:03:30.424Z,43.70
2023-04-12T18:06:36.606Z,43.87
2023-04-12T18:09:39.086Z,42.89
2023-04-12T18:12:41.488Z,44.59
2023-04-12T18:15:44.013Z,47.31
2023-04-12T18:18:46.579Z,46.72
2023-04-12T18:21:51.745Z,46.37
2023-04-12T18:24:54.966Z,45.55
2023-04-12T18:27:58.187Z,44.66
2023-04-12T18:31:02.853Z,45.49
2023-04-12T18:34:06.712Z,46.26
2023-04-12T18:37:13.597Z,47.33
2023-04-12T18:40:17.303Z,45.82
2023-04-12T18:43:21.792Z,45.54
2023-04-12T18:46:27.397Z,46.59
2023-04-12T18:49:30.545Z,47.37
2023-04-12T18:52:38.742Z,47.25
2023-04-12T18:55:43.383Z,47.70
2023-04-12T19:01:54.608Z,47.95
2023-04-12T19:04:59.072Z,48.00
2023-04-12T19:08:03.748Z,48.81
2023-04-12T19:11:07.236Z,47.64
2023-04-12T19:14:12.178Z,47.77
2023-04-12T19:17:15.471Z,47.20
2023-04-12T19:20:20.082Z,47.79
2023-04-12T19:23:25.793Z,49.24
2023-04-12T19:26:29.103Z,48.86
2023-04-12T19:29:31.866Z,48.39
2023-04-12T19:32:34.299Z,49.28
2023-04-12T19:35:42.029Z,50.09
2023-04-12T19:38:49.182Z,51.35
2023-04-12T19:41:53.181Z,51.09
2023-04-12T19:44:56.386Z,50.57
2023-04-12T19:48:00.693Z,54.15
2023-04-12T19:51:03.148Z,54.98
2023-04-12T19:54:10.649Z,52.86
2023-04-12T19:57:21.002Z,53.42
2023-04-12T20:00:26.008Z,57.60
2023-04-12T20:03:29.070Z,53.32
2023-04-12T20:06:32.201Z,52.79
2023-04-12T20:09:37.115Z,50.81
2023-04-12T20:12:40.999Z,50.73
2023-04-12T20:15:45.565Z,50.71
2023-04-12T20:18:48.732Z,50.54
2023-04-12T20:21:51.452Z,50.97
2023-04-12T20:24:55.958Z,51.33
2023-04-12T20:27:59.267Z,52.36
2023-04-12T20:31:02.308Z,52.87
2023-04-12T20:34:05.399Z,52.63
2023-04-12T20:37:09.069Z,52.71
2023-04-12T20:40:13.240Z,51.26
2023-04-12T20:43:17.100Z,51.55
2023-04-12T20:46:20.711Z,51.81
2023-04-12T20:49:26.913Z,50.93
2023-04-12T20:52:30.517Z,50.89
2023-04-12T20:55:35.343Z,52.07
2023-04-12T20:58:38.565Z,51.54
2023-04-12T21:01:40.613Z,51.65
2023-04-12T21:04:42.759Z,53.08
2023-04-12T21:07:46.819Z,52.34
2023-04-12T21:10:50.897Z,52.89
2023-04-12T21:13:52.729Z,53.22
2023-04-12T21:16:54.563Z,51.65
2023-04-12T21:19:57.497Z,52.59
2023-04-12T21:22:59.758Z,54.37
2023-04-12T21:26:04.145Z,52.64
2023-04-12T21:29:06.692Z,53.62
2023-04-12T21:32:09.267Z,55.22
2023-04-12T21:35:11.971Z,54.31
2023-04-12T21:38:14.684Z,55.38
2023-04-12T21:41:17.836Z,55.79
2023-04-12T21:44:20.065Z,55.62
2023-04-12T21:47:22.803Z,57.53
2023-04-12T21:50:24.770Z,54.96
2023-04-12T21:53:27.359Z,54.03
2023-04-12T21:56:30.531Z,54.67
2023-04-12T21:59:32.648Z,54.39
2023-04-12T22:02:34.605Z,56.92
2023-04-12T22:05:39.863Z,55.07
2023-04-12T22:08:44.220Z,57.30
2023-04-12T22:11:49.129Z,56.11
2023-04-12T22:14:51.363Z,56.13
2023-04-12T22:17:53.423Z,54.59
2023-04-12T22:20:56.275Z,55.10
2023-04-12T22:23:58.421Z,54.58
2023-04-12T22:27:01.936Z,54.97
2023-04-12T22:30:06.927Z,53.61
2023-04-12T22:33:08.891Z,54.57
2023-04-12T22:36:11.874Z,52.86
2023-04-12T22:39:15.636Z,55.13
2023-04-12T22:42:20.814Z,54.55
2023-04-12T22:45:22.614Z,54.58
2023-04-12T22:48:25.053Z,54.01
2023-04-12T22:51:28.058Z,54.04
2023-04-12T22:54:29.921Z,53.17
2023-04-12T22:57:35.097Z,56.38
2023-04-12T23:00:37.132Z,56.50
2023-04-12T23:03:41.817Z,57.57
2023-04-12T23:06:44.269Z,57.17
2023-04-12T23:09:46.492Z,55.81
2023-04-12T23:12:54.723Z,58.70
2023-04-12T23:15:57.850Z,58.94
2023-04-12T23:18:59.993Z,59.04
2023-04-12T23:22:03.373Z,58.98
2023-04-12T23:25:06.008Z,58.18
2023-04-12T23:28:15.133Z,59.01
2023-04-12T23:31:17.115Z,56.81
2023-04-12T23:34:22.082Z,55.98
2023-04-12T23:37:23.943Z,57.37
2023-04-12T23:40:26.415Z,58.14
2023-04-12T23:43:31.293Z,58.19
2023-04-12T23:46:33.162Z,59.46
2023-04-12T23:49:35.464Z,59.22
2023-04-12T23:52:37.531Z,60.67
2023-04-12T23:55:42.783Z,59.69
2023-04-12T23:58:46.605Z,55.93
